sensor_id;sensor_type;location;lat;lon;timestamp;P1;durP1;ratioP1;P2;durP2;ratioP2
58302;SDS011;44109;52.398;7.024;2023-01-29T00:02:18;31.90;;;18.50;;
58302;SDS011;44109;52.398;7.024;2023-01-29T00:04:46;28.30;;;16.95;;
58302;SDS011;44109;52.398;7.024;2023-01-29T00:07:13;28.05;;;15.05;;
58302;SDS011;44109;52.398;7.024;2023-01-29T00:09:42;30.17;;;18.35;;
58302;SDS011;44109;52.398;7.024;2023-01-29T00:12:10;32.15;;;19.30;;
58302;SDS011;44109;52.398;7.024;2023-01-29T00:14:38;30.75;;;17.25;;
58302;SDS011;44109;52.398;7.024;2023-01-29T00:17:05;30.80;;;16.48;;
58302;SDS011;44109;52.398;7.024;2023-01-29T00:19:33;34.83;;;21.20;;
58302;SDS011;44109;52.398;7.024;2023-01-29T00:22:01;30.92;;;17.77;;
58302;SDS011;44109;52.398;7.024;2023-01-29T00:24:29;24.77;;;14.90;;
58302;SDS011;44109;52.398;7.024;2023-01-29T00:26:58;31.33;;;18.10;;
58302;SDS011;44109;52.398;7.024;2023-01-29T00:29:26;25.10;;;15.05;;
58302;SDS011;44109;52.398;7.024;2023-01-29T00:31:53;26.58;;;16.15;;
58302;SDS011;44109;52.398;7.024;2023-01-29T00:34:21;31.05;;;16.85;;
58302;SDS011;44109;52.398;7.024;2023-01-29T00:36:49;30.55;;;18.00;;
58302;SDS011;44109;52.398;7.024;2023-01-29T00:39:16;31.92;;;18.85;;
58302;SDS011;44109;52.398;7.024;2023-01-29T00:41:50;29.98;;;17.35;;
58302;SDS011;44109;52.398;7.024;2023-01-29T00:44:36;31.27;;;17.52;;
58302;SDS011;44109;52.398;7.024;2023-01-29T00:47:21;25.85;;;14.90;;
58302;SDS011;44109;52.398;7.024;2023-01-29T00:49:58;23.10;;;13.43;;
58302;SDS011;44109;52.398;7.024;2023-01-29T00:52:26;27.15;;;15.30;;
58302;SDS011;44109;52.398;7.024;2023-01-29T00:54:55;27.13;;;13.52;;
58302;SDS011;44109;52.398;7.024;2023-01-29T00:57:25;35.83;;;19.55;;
58302;SDS011;44109;52.398;7.024;2023-01-29T00:59:57;30.63;;;17.67;;
58302;SDS011;44109;52.398;7.024;2023-01-29T01:02:25;29.55;;;17.65;;
58302;SDS011;44109;52.398;7.024;2023-01-29T01:05:11;29.73;;;16.98;;
58302;SDS011;44109;52.398;7.024;2023-01-29T01:07:51;26.67;;;14.52;;
58302;SDS011;44109;52.398;7.024;2023-01-29T01:10:22;31.77;;;18.38;;
58302;SDS011;44109;52.398;7.024;2023-01-29T01:12:52;33.25;;;19.42;;
58302;SDS011;44109;52.398;7.024;2023-01-29T01:15:25;26.70;;;14.85;;
58302;SDS011;44109;52.398;7.024;2023-01-29T01:17:57;29.83;;;17.08;;
58302;SDS011;44109;52.398;7.024;2023-01-29T01:20:27;31.90;;;17.60;;
58302;SDS011;44109;52.398;7.024;2023-01-29T01:22:58;29.70;;;16.48;;
58302;SDS011;44109;52.398;7.024;2023-01-29T01:25:26;24.25;;;14.90;;
58302;SDS011;44109;52.398;7.024;2023-01-29T01:27:54;30.30;;;16.58;;
58302;SDS011;44109;52.398;7.024;2023-01-29T01:30:26;31.00;;;18.52;;
58302;SDS011;44109;52.398;7.024;2023-01-29T01:32:54;30.23;;;17.90;;
58302;SDS011;44109;52.398;7.024;2023-01-29T01:35:22;26.80;;;15.73;;
58302;SDS011;44109;52.398;7.024;2023-01-29T01:37:49;27.73;;;14.82;;
58302;SDS011;44109;52.398;7.024;2023-01-29T01:40:17;28.13;;;15.30;;
58302;SDS011;44109;52.398;7.024;2023-01-29T01:42:47;28.05;;;14.55;;
58302;SDS011;44109;52.398;7.024;2023-01-29T01:45:18;23.83;;;13.60;;
58302;SDS011;44109;52.398;7.024;2023-01-29T01:47:53;28.73;;;14.85;;
58302;SDS011;44109;52.398;7.024;2023-01-29T01:50:29;25.77;;;14.13;;
58302;SDS011;44109;52.398;7.024;2023-01-29T01:53:04;29.75;;;15.95;;
58302;SDS011;44109;52.398;7.024;2023-01-29T01:55:36;28.23;;;15.20;;
58302;SDS011;44109;52.398;7.024;2023-01-29T01:58:11;26.13;;;14.23;;
58302;SDS011;44109;52.398;7.024;2023-01-29T02:00:43;29.25;;;16.33;;
58302;SDS011;44109;52.398;7.024;2023-01-29T02:03:12;31.73;;;18.30;;
58302;SDS011;44109;52.398;7.024;2023-01-29T02:05:58;25.80;;;14.95;;
58302;SDS011;44109;52.398;7.024;2023-01-29T02:08:46;31.25;;;17.27;;
58302;SDS011;44109;52.398;7.024;2023-01-29T02:11:39;30.80;;;17.60;;
58302;SDS011;44109;52.398;7.024;2023-01-29T02:14:07;28.73;;;17.17;;
58302;SDS011;44109;52.398;7.024;2023-01-29T02:16:35;28.77;;;17.00;;
58302;SDS011;44109;52.398;7.024;2023-01-29T02:19:08;30.27;;;17.17;;
58302;SDS011;44109;52.398;7.024;2023-01-29T02:21:51;29.73;;;18.35;;
58302;SDS011;44109;52.398;7.024;2023-01-29T02:24:52;27.63;;;15.55;;
58302;SDS011;44109;52.398;7.024;2023-01-29T02:27:57;27.17;;;14.10;;
58302;SDS011;44109;52.398;7.024;2023-01-29T02:30:52;23.48;;;14.13;;
58302;SDS011;44109;52.398;7.024;2023-01-29T02:33:30;32.17;;;18.05;;
58302;SDS011;44109;52.398;7.024;2023-01-29T02:36:17;28.33;;;16.65;;
58302;SDS011;44109;52.398;7.024;2023-01-29T02:38:59;34.22;;;19.17;;
58302;SDS011;44109;52.398;7.024;2023-01-29T02:41:41;28.55;;;16.00;;
58302;SDS011;44109;52.398;7.024;2023-01-29T02:44:22;33.40;;;17.13;;
58302;SDS011;44109;52.398;7.024;2023-01-29T02:47:01;28.67;;;16.02;;
58302;SDS011;44109;52.398;7.024;2023-01-29T02:49:42;29.00;;;15.57;;
58302;SDS011;44109;52.398;7.024;2023-01-29T02:52:19;26.63;;;15.05;;
58302;SDS011;44109;52.398;7.024;2023-01-29T02:54:53;31.80;;;16.60;;
58302;SDS011;44109;52.398;7.024;2023-01-29T02:57:30;27.25;;;16.17;;
58302;SDS011;44109;52.398;7.024;2023-01-29T03:00:06;28.65;;;17.38;;
58302;SDS011;44109;52.398;7.024;2023-01-29T03:02:41;33.08;;;16.58;;
58302;SDS011;44109;52.398;7.024;2023-01-29T03:05:15;37.85;;;21.13;;
58302;SDS011;44109;52.398;7.024;2023-01-29T03:07:51;28.40;;;15.93;;
58302;SDS011;44109;52.398;7.024;2023-01-29T03:10:30;32.40;;;18.88;;
58302;SDS011;44109;52.398;7.024;2023-01-29T03:13:06;29.58;;;17.27;;
58302;SDS011;44109;52.398;7.024;2023-01-29T03:15:43;28.00;;;16.17;;
58302;SDS011;44109;52.398;7.024;2023-01-29T03:18:17;28.23;;;16.27;;
58302;SDS011;44109;52.398;7.024;2023-01-29T03:20:52;30.17;;;17.27;;
58302;SDS011;44109;52.398;7.024;2023-01-29T03:23:27;30.92;;;17.63;;
58302;SDS011;44109;52.398;7.024;2023-01-29T03:26:18;32.33;;;18.33;;
58302;SDS011;44109;52.398;7.024;2023-01-29T03:29:06;35.75;;;18.65;;
58302;SDS011;44109;52.398;7.024;2023-01-29T03:31:57;33.08;;;18.92;;
58302;SDS011;44109;52.398;7.024;2023-01-29T03:34:32;28.02;;;17.33;;
58302;SDS011;44109;52.398;7.024;2023-01-29T03:37:10;33.70;;;19.23;;
58302;SDS011;44109;52.398;7.024;2023-01-29T03:39:46;29.48;;;16.13;;
58302;SDS011;44109;52.398;7.024;2023-01-29T03:42:16;30.73;;;17.77;;
58302;SDS011;44109;52.398;7.024;2023-01-29T03:44:52;34.40;;;19.88;;
58302;SDS011;44109;52.398;7.024;2023-01-29T03:47:31;32.75;;;16.77;;
58302;SDS011;44109;52.398;7.024;2023-01-29T03:50:14;37.00;;;21.25;;
58302;SDS011;44109;52.398;7.024;2023-01-29T03:53:00;34.25;;;19.33;;
58302;SDS011;44109;52.398;7.024;2023-01-29T03:55:40;31.80;;;18.58;;
58302;SDS011;44109;52.398;7.024;2023-01-29T03:58:21;38.88;;;22.02;;
58302;SDS011;44109;52.398;7.024;2023-01-29T04:01:01;32.45;;;16.75;;
58302;SDS011;44109;52.398;7.024;2023-01-29T04:03:38;39.75;;;20.67;;
58302;SDS011;44109;52.398;7.024;2023-01-29T04:06:15;34.15;;;18.73;;
58302;SDS011;44109;52.398;7.024;2023-01-29T04:08:47;31.25;;;18.10;;
58302;SDS011;44109;52.398;7.024;2023-01-29T04:11:24;32.47;;;19.38;;
58302;SDS011;44109;52.398;7.024;2023-01-29T04:13:55;35.20;;;18.80;;
58302;SDS011;44109;52.398;7.024;2023-01-29T04:16:25;38.58;;;22.30;;
58302;SDS011;44109;52.398;7.024;2023-01-29T04:19:02;29.98;;;17.80;;
58302;SDS011;44109;52.398;7.024;2023-01-29T04:21:32;32.88;;;18.92;;
58302;SDS011;44109;52.398;7.024;2023-01-29T04:24:02;43.65;;;22.90;;
58302;SDS011;44109;52.398;7.024;2023-01-29T04:26:33;31.15;;;17.08;;
58302;SDS011;44109;52.398;7.024;2023-01-29T04:29:24;30.15;;;16.67;;
58302;SDS011;44109;52.398;7.024;2023-01-29T04:32:13;37.72;;;18.80;;
58302;SDS011;44109;52.398;7.024;2023-01-29T04:34:55;28.30;;;15.85;;
58302;SDS011;44109;52.398;7.024;2023-01-29T04:37:35;37.30;;;21.00;;
58302;SDS011;44109;52.398;7.024;2023-01-29T04:40:18;28.05;;;16.30;;
58302;SDS011;44109;52.398;7.024;2023-01-29T04:42:54;31.63;;;16.85;;
58302;SDS011;44109;52.398;7.024;2023-01-29T04:45:34;37.45;;;20.23;;
58302;SDS011;44109;52.398;7.024;2023-01-29T04:48:18;30.40;;;18.50;;
58302;SDS011;44109;52.398;7.024;2023-01-29T04:50:53;32.08;;;16.45;;
58302;SDS011;44109;52.398;7.024;2023-01-29T04:53:35;34.78;;;20.80;;
58302;SDS011;44109;52.398;7.024;2023-01-29T04:56:15;34.40;;;19.45;;
58302;SDS011;44109;52.398;7.024;2023-01-29T04:58:53;38.70;;;22.45;;
58302;SDS011;44109;52.398;7.024;2023-01-29T05:01:27;27.02;;;15.63;;
58302;SDS011;44109;52.398;7.024;2023-01-29T05:03:58;30.92;;;18.42;;
58302;SDS011;44109;52.398;7.024;2023-01-29T05:06:33;33.40;;;19.58;;
58302;SDS011;44109;52.398;7.024;2023-01-29T05:09:03;32.13;;;17.27;;
58302;SDS011;44109;52.398;7.024;2023-01-29T05:11:33;36.10;;;20.67;;
58302;SDS011;44109;52.398;7.024;2023-01-29T05:14:03;30.65;;;18.08;;
58302;SDS011;44109;52.398;7.024;2023-01-29T05:16:37;30.98;;;18.83;;
58302;SDS011;44109;52.398;7.024;2023-01-29T05:19:09;29.73;;;17.35;;
58302;SDS011;44109;52.398;7.024;2023-01-29T05:21:42;31.75;;;17.45;;
58302;SDS011;44109;52.398;7.024;2023-01-29T05:24:14;35.38;;;19.60;;
58302;SDS011;44109;52.398;7.024;2023-01-29T05:26:45;38.67;;;20.33;;
58302;SDS011;44109;52.398;7.024;2023-01-29T05:29:34;31.70;;;17.13;;
58302;SDS011;44109;52.398;7.024;2023-01-29T05:32:02;36.40;;;19.42;;
58302;SDS011;44109;52.398;7.024;2023-01-29T05:34:29;33.22;;;17.45;;
58302;SDS011;44109;52.398;7.024;2023-01-29T05:36:58;31.83;;;18.25;;
58302;SDS011;44109;52.398;7.024;2023-01-29T05:39:26;34.47;;;17.30;;
58302;SDS011;44109;52.398;7.024;2023-01-29T05:41:54;27.45;;;16.17;;
58302;SDS011;44109;52.398;7.024;2023-01-29T05:44:22;29.75;;;17.58;;
58302;SDS011;44109;52.398;7.024;2023-01-29T05:46:49;29.17;;;16.90;;
58302;SDS011;44109;52.398;7.024;2023-01-29T05:49:17;25.48;;;15.93;;
58302;SDS011;44109;52.398;7.024;2023-01-29T05:51:47;34.25;;;19.50;;
58302;SDS011;44109;52.398;7.024;2023-01-29T05:54:16;29.30;;;16.35;;
58302;SDS011;44109;52.398;7.024;2023-01-29T05:56:43;34.42;;;19.00;;
58302;SDS011;44109;52.398;7.024;2023-01-29T05:59:11;33.38;;;18.77;;
58302;SDS011;44109;52.398;7.024;2023-01-29T06:01:39;31.80;;;16.73;;
58302;SDS011;44109;52.398;7.024;2023-01-29T06:04:07;31.40;;;17.48;;
58302;SDS011;44109;52.398;7.024;2023-01-29T06:06:34;34.72;;;20.88;;
58302;SDS011;44109;52.398;7.024;2023-01-29T06:09:02;27.33;;;17.25;;
58302;SDS011;44109;52.398;7.024;2023-01-29T06:11:31;29.33;;;16.38;;
58302;SDS011;44109;52.398;7.024;2023-01-29T06:13:59;34.58;;;18.45;;
58302;SDS011;44109;52.398;7.024;2023-01-29T06:16:27;31.88;;;18.20;;
58302;SDS011;44109;52.398;7.024;2023-01-29T06:18:54;28.48;;;15.90;;
58302;SDS011;44109;52.398;7.024;2023-01-29T06:21:22;30.90;;;18.10;;
58302;SDS011;44109;52.398;7.024;2023-01-29T06:23:51;32.45;;;18.55;;
58302;SDS011;44109;52.398;7.024;2023-01-29T06:26:19;30.35;;;16.63;;
58302;SDS011;44109;52.398;7.024;2023-01-29T06:28:48;24.67;;;15.13;;
58302;SDS011;44109;52.398;7.024;2023-01-29T06:31:17;32.50;;;18.27;;
58302;SDS011;44109;52.398;7.024;2023-01-29T06:33:44;33.55;;;19.60;;
58302;SDS011;44109;52.398;7.024;2023-01-29T06:36:12;28.38;;;15.90;;
58302;SDS011;44109;52.398;7.024;2023-01-29T06:38:39;33.78;;;20.38;;
58302;SDS011;44109;52.398;7.024;2023-01-29T06:41:07;32.42;;;18.95;;
58302;SDS011;44109;52.398;7.024;2023-01-29T06:43:37;28.98;;;17.50;;
58302;SDS011;44109;52.398;7.024;2023-01-29T06:46:07;36.53;;;20.40;;
58302;SDS011;44109;52.398;7.024;2023-01-29T06:48:34;35.22;;;20.02;;
58302;SDS011;44109;52.398;7.024;2023-01-29T06:51:03;33.30;;;18.25;;
58302;SDS011;44109;52.398;7.024;2023-01-29T06:53:33;36.60;;;20.55;;
58302;SDS011;44109;52.398;7.024;2023-01-29T06:56:02;33.40;;;21.33;;
58302;SDS011;44109;52.398;7.024;2023-01-29T06:58:29;34.20;;;20.50;;
58302;SDS011;44109;52.398;7.024;2023-01-29T07:01:01;35.05;;;20.55;;
58302;SDS011;44109;52.398;7.024;2023-01-29T07:03:32;31.75;;;19.17;;
58302;SDS011;44109;52.398;7.024;2023-01-29T07:06:00;30.30;;;17.38;;
58302;SDS011;44109;52.398;7.024;2023-01-29T07:08:28;31.63;;;19.27;;
58302;SDS011;44109;52.398;7.024;2023-01-29T07:10:59;31.17;;;19.85;;
58302;SDS011;44109;52.398;7.024;2023-01-29T07:13:29;30.27;;;17.35;;
58302;SDS011;44109;52.398;7.024;2023-01-29T07:15:57;38.38;;;21.73;;
58302;SDS011;44109;52.398;7.024;2023-01-29T07:18:25;32.78;;;19.35;;
58302;SDS011;44109;52.398;7.024;2023-01-29T07:20:55;31.48;;;18.27;;
58302;SDS011;44109;52.398;7.024;2023-01-29T07:23:23;36.50;;;21.25;;
58302;SDS011;44109;52.398;7.024;2023-01-29T07:25:51;32.15;;;20.08;;
58302;SDS011;44109;52.398;7.024;2023-01-29T07:28:19;31.38;;;18.52;;
58302;SDS011;44109;52.398;7.024;2023-01-29T07:30:47;33.15;;;20.77;;
58302;SDS011;44109;52.398;7.024;2023-01-29T07:33:14;31.38;;;17.98;;
58302;SDS011;44109;52.398;7.024;2023-01-29T07:35:42;32.03;;;17.73;;
58302;SDS011;44109;52.398;7.024;2023-01-29T07:38:11;37.17;;;20.08;;
58302;SDS011;44109;52.398;7.024;2023-01-29T07:40:39;30.42;;;17.92;;
58302;SDS011;44109;52.398;7.024;2023-01-29T07:43:07;31.20;;;17.63;;
58302;SDS011;44109;52.398;7.024;2023-01-29T07:45:37;37.85;;;21.42;;
58302;SDS011;44109;52.398;7.024;2023-01-29T07:48:08;33.83;;;19.70;;
58302;SDS011;44109;52.398;7.024;2023-01-29T07:50:38;34.05;;;19.55;;
58302;SDS011;44109;52.398;7.024;2023-01-29T07:53:12;31.30;;;18.25;;
58302;SDS011;44109;52.398;7.024;2023-01-29T07:55:42;33.88;;;19.75;;
58302;SDS011;44109;52.398;7.024;2023-01-29T07:58:11;35.28;;;18.33;;
58302;SDS011;44109;52.398;7.024;2023-01-29T08:00:39;36.42;;;20.90;;
58302;SDS011;44109;52.398;7.024;2023-01-29T08:03:08;36.58;;;21.02;;
58302;SDS011;44109;52.398;7.024;2023-01-29T08:05:38;29.95;;;17.73;;
58302;SDS011;44109;52.398;7.024;2023-01-29T08:08:06;30.15;;;17.55;;
58302;SDS011;44109;52.398;7.024;2023-01-29T08:10:35;35.63;;;20.00;;
58302;SDS011;44109;52.398;7.024;2023-01-29T08:13:04;30.85;;;19.10;;
58302;SDS011;44109;52.398;7.024;2023-01-29T08:15:33;30.73;;;17.70;;
58302;SDS011;44109;52.398;7.024;2023-01-29T08:18:01;34.75;;;19.80;;
58302;SDS011;44109;52.398;7.024;2023-01-29T08:20:29;39.25;;;21.80;;
58302;SDS011;44109;52.398;7.024;2023-01-29T08:22:57;32.88;;;19.70;;
58302;SDS011;44109;52.398;7.024;2023-01-29T08:25:27;34.85;;;21.13;;
58302;SDS011;44109;52.398;7.024;2023-01-29T08:27:56;31.38;;;18.83;;
58302;SDS011;44109;52.398;7.024;2023-01-29T08:30:25;36.63;;;19.63;;
58302;SDS011;44109;52.398;7.024;2023-01-29T08:32:54;35.42;;;21.15;;
58302;SDS011;44109;52.398;7.024;2023-01-29T08:35:22;27.67;;;17.00;;
58302;SDS011;44109;52.398;7.024;2023-01-29T08:37:53;32.38;;;19.73;;
58302;SDS011;44109;52.398;7.024;2023-01-29T08:40:24;34.92;;;21.15;;
58302;SDS011;44109;52.398;7.024;2023-01-29T08:42:52;38.55;;;23.77;;
58302;SDS011;44109;52.398;7.024;2023-01-29T08:45:25;37.95;;;22.52;;
58302;SDS011;44109;52.398;7.024;2023-01-29T08:47:53;39.40;;;21.45;;
58302;SDS011;44109;52.398;7.024;2023-01-29T08:50:21;34.72;;;18.92;;
58302;SDS011;44109;52.398;7.024;2023-01-29T08:52:48;33.13;;;21.08;;
58302;SDS011;44109;52.398;7.024;2023-01-29T08:55:16;37.63;;;20.95;;
58302;SDS011;44109;52.398;7.024;2023-01-29T08:57:44;36.47;;;20.38;;
58302;SDS011;44109;52.398;7.024;2023-01-29T09:00:14;37.67;;;22.17;;
58302;SDS011;44109;52.398;7.024;2023-01-29T09:02:42;37.08;;;21.92;;
58302;SDS011;44109;52.398;7.024;2023-01-29T09:05:10;32.13;;;18.60;;
58302;SDS011;44109;52.398;7.024;2023-01-29T09:07:37;34.75;;;20.92;;
58302;SDS011;44109;52.398;7.024;2023-01-29T09:10:05;33.03;;;18.27;;
58302;SDS011;44109;52.398;7.024;2023-01-29T09:12:35;34.85;;;20.63;;
58302;SDS011;44109;52.398;7.024;2023-01-29T09:15:03;32.92;;;20.75;;
58302;SDS011;44109;52.398;7.024;2023-01-29T09:17:32;34.78;;;22.23;;
58302;SDS011;44109;52.398;7.024;2023-01-29T09:20:00;31.08;;;18.73;;
58302;SDS011;44109;52.398;7.024;2023-01-29T09:22:28;32.50;;;20.45;;
58302;SDS011;44109;52.398;7.024;2023-01-29T09:24:55;30.27;;;18.48;;
58302;SDS011;44109;52.398;7.024;2023-01-29T09:27:24;37.03;;;21.65;;
58302;SDS011;44109;52.398;7.024;2023-01-29T09:29:51;32.95;;;19.15;;
58302;SDS011;44109;52.398;7.024;2023-01-29T09:32:19;30.70;;;18.55;;
58302;SDS011;44109;52.398;7.024;2023-01-29T09:34:48;31.17;;;18.67;;
58302;SDS011;44109;52.398;7.024;2023-01-29T09:37:16;32.83;;;20.40;;
58302;SDS011;44109;52.398;7.024;2023-01-29T09:39:43;37.33;;;21.65;;
58302;SDS011;44109;52.398;7.024;2023-01-29T09:42:13;33.45;;;19.15;;
58302;SDS011;44109;52.398;7.024;2023-01-29T09:44:53;31.05;;;18.48;;
58302;SDS011;44109;52.398;7.024;2023-01-29T09:47:32;28.83;;;17.67;;
58302;SDS011;44109;52.398;7.024;2023-01-29T09:50:04;29.08;;;17.75;;
58302;SDS011;44109;52.398;7.024;2023-01-29T09:52:39;29.35;;;18.30;;
58302;SDS011;44109;52.398;7.024;2023-01-29T09:55:14;31.40;;;19.08;;
58302;SDS011;44109;52.398;7.024;2023-01-29T09:57:52;26.85;;;15.35;;
58302;SDS011;44109;52.398;7.024;2023-01-29T10:00:24;26.03;;;17.10;;
58302;SDS011;44109;52.398;7.024;2023-01-29T10:03:08;29.58;;;17.95;;
58302;SDS011;44109;52.398;7.024;2023-01-29T10:06:01;28.15;;;18.27;;
58302;SDS011;44109;52.398;7.024;2023-01-29T10:08:51;29.33;;;17.75;;
58302;SDS011;44109;52.398;7.024;2023-01-29T10:11:56;28.35;;;17.63;;
58302;SDS011;44109;52.398;7.024;2023-01-29T10:14:44;28.45;;;17.83;;
58302;SDS011;44109;52.398;7.024;2023-01-29T10:17:30;32.35;;;17.42;;
58302;SDS011;44109;52.398;7.024;2023-01-29T10:20:35;24.77;;;15.70;;
58302;SDS011;44109;52.398;7.024;2023-01-29T10:23:19;29.20;;;17.17;;
58302;SDS011;44109;52.398;7.024;2023-01-29T10:25:52;27.20;;;17.60;;
58302;SDS011;44109;52.398;7.024;2023-01-29T10:28:23;24.95;;;16.85;;
58302;SDS011;44109;52.398;7.024;2023-01-29T10:30:58;25.60;;;16.42;;
58302;SDS011;44109;52.398;7.024;2023-01-29T10:33:32;31.30;;;18.85;;
58302;SDS011;44109;52.398;7.024;2023-01-29T10:36:07;26.20;;;15.98;;
58302;SDS011;44109;52.398;7.024;2023-01-29T10:38:45;29.20;;;17.42;;
58302;SDS011;44109;52.398;7.024;2023-01-29T10:41:20;27.70;;;16.48;;
58302;SDS011;44109;52.398;7.024;2023-01-29T10:44:17;30.30;;;17.23;;
58302;SDS011;44109;52.398;7.024;2023-01-29T10:46:59;25.02;;;17.00;;
58302;SDS011;44109;52.398;7.024;2023-01-29T10:49:54;30.95;;;17.83;;
58302;SDS011;44109;52.398;7.024;2023-01-29T10:52:58;29.33;;;17.73;;
58302;SDS011;44109;52.398;7.024;2023-01-29T10:55:57;26.67;;;17.60;;
58302;SDS011;44109;52.398;7.024;2023-01-29T10:58:40;25.98;;;17.63;;
58302;SDS011;44109;52.398;7.024;2023-01-29T11:01:13;26.55;;;16.88;;
58302;SDS011;44109;52.398;7.024;2023-01-29T11:03:41;29.02;;;17.73;;
58302;SDS011;44109;52.398;7.024;2023-01-29T11:06:11;27.65;;;18.92;;
58302;SDS011;44109;52.398;7.024;2023-01-29T11:08:48;28.08;;;18.90;;
58302;SDS011;44109;52.398;7.024;2023-01-29T11:11:25;30.25;;;18.80;;
58302;SDS011;44109;52.398;7.024;2023-01-29T11:14:04;31.77;;;19.65;;
58302;SDS011;44109;52.398;7.024;2023-01-29T11:16:41;31.83;;;18.23;;
58302;SDS011;44109;52.398;7.024;2023-01-29T11:19:12;31.48;;;18.73;;
58302;SDS011;44109;52.398;7.024;2023-01-29T11:21:51;28.88;;;18.92;;
58302;SDS011;44109;52.398;7.024;2023-01-29T11:24:24;30.23;;;19.40;;
58302;SDS011;44109;52.398;7.024;2023-01-29T11:26:54;33.40;;;20.95;;
58302;SDS011;44109;52.398;7.024;2023-01-29T11:29:28;28.80;;;17.60;;
58302;SDS011;44109;52.398;7.024;2023-01-29T11:32:05;30.65;;;19.63;;
58302;SDS011;44109;52.398;7.024;2023-01-29T11:34:55;29.60;;;19.33;;
58302;SDS011;44109;52.398;7.024;2023-01-29T11:37:32;29.20;;;18.80;;
58302;SDS011;44109;52.398;7.024;2023-01-29T11:45:57;34.20;;;21.58;;
58302;SDS011;44109;52.398;7.024;2023-01-29T11:48:34;29.45;;;18.88;;
58302;SDS011;44109;52.398;7.024;2023-01-29T11:51:09;30.63;;;20.88;;
58302;SDS011;44109;52.398;7.024;2023-01-29T11:53:48;31.15;;;20.00;;
58302;SDS011;44109;52.398;7.024;2023-01-29T11:56:20;33.60;;;21.77;;
58302;SDS011;44109;52.398;7.024;2023-01-29T11:59:02;34.95;;;22.55;;
58302;SDS011;44109;52.398;7.024;2023-01-29T12:01:34;32.22;;;19.77;;
58302;SDS011;44109;52.398;7.024;2023-01-29T12:04:11;28.45;;;18.52;;
58302;SDS011;44109;52.398;7.024;2023-01-29T12:06:46;30.08;;;19.08;;
58302;SDS011;44109;52.398;7.024;2023-01-29T12:09:18;36.38;;;20.88;;
58302;SDS011;44109;52.398;7.024;2023-01-29T12:11:51;32.25;;;19.88;;
58302;SDS011;44109;52.398;7.024;2023-01-29T12:14:23;32.42;;;20.92;;
58302;SDS011;44109;52.398;7.024;2023-01-29T12:16:58;40.13;;;22.90;;
58302;SDS011;44109;52.398;7.024;2023-01-29T12:19:35;32.05;;;20.77;;
58302;SDS011;44109;52.398;7.024;2023-01-29T12:22:09;33.65;;;21.15;;
58302;SDS011;44109;52.398;7.024;2023-01-29T12:24:48;34.17;;;21.48;;
58302;SDS011;44109;52.398;7.024;2023-01-29T12:27:23;36.13;;;21.65;;
58302;SDS011;44109;52.398;7.024;2023-01-29T12:30:00;34.28;;;22.33;;
58302;SDS011;44109;52.398;7.024;2023-01-29T12:32:40;30.05;;;18.65;;
58302;SDS011;44109;52.398;7.024;2023-01-29T12:35:17;32.40;;;19.45;;
58302;SDS011;44109;52.398;7.024;2023-01-29T12:37:52;36.80;;;22.10;;
58302;SDS011;44109;52.398;7.024;2023-01-29T12:40:28;30.23;;;19.95;;
58302;SDS011;44109;52.398;7.024;2023-01-29T12:43:08;31.33;;;19.27;;
58302;SDS011;44109;52.398;7.024;2023-01-29T12:45:43;36.15;;;24.08;;
58302;SDS011;44109;52.398;7.024;2023-01-29T12:48:18;38.17;;;24.55;;
58302;SDS011;44109;52.398;7.024;2023-01-29T12:50:52;38.33;;;23.05;;
58302;SDS011;44109;52.398;7.024;2023-01-29T12:53:31;33.80;;;21.77;;
58302;SDS011;44109;52.398;7.024;2023-01-29T12:56:08;38.40;;;23.33;;
58302;SDS011;44109;52.398;7.024;2023-01-29T12:58:42;37.33;;;22.55;;
58302;SDS011;44109;52.398;7.024;2023-01-29T13:01:19;42.05;;;23.90;;
58302;SDS011;44109;52.398;7.024;2023-01-29T13:03:57;36.03;;;21.88;;
58302;SDS011;44109;52.398;7.024;2023-01-29T13:06:32;34.30;;;21.50;;
58302;SDS011;44109;52.398;7.024;2023-01-29T13:09:08;37.63;;;24.00;;
58302;SDS011;44109;52.398;7.024;2023-01-29T13:11:43;38.58;;;25.67;;
58302;SDS011;44109;52.398;7.024;2023-01-29T13:14:19;35.85;;;23.08;;
58302;SDS011;44109;52.398;7.024;2023-01-29T13:16:56;39.45;;;24.33;;
58302;SDS011;44109;52.398;7.024;2023-01-29T13:19:35;44.40;;;28.10;;
58302;SDS011;44109;52.398;7.024;2023-01-29T13:22:13;38.20;;;24.73;;
58302;SDS011;44109;52.398;7.024;2023-01-29T13:24:48;44.38;;;27.77;;
58302;SDS011;44109;52.398;7.024;2023-01-29T13:27:21;35.42;;;22.50;;
58302;SDS011;44109;52.398;7.024;2023-01-29T13:29:52;34.03;;;22.90;;
58302;SDS011;44109;52.398;7.024;2023-01-29T13:32:24;38.83;;;23.83;;
58302;SDS011;44109;52.398;7.024;2023-01-29T13:34:55;41.30;;;26.67;;
58302;SDS011;44109;52.398;7.024;2023-01-29T13:37:29;44.60;;;27.60;;
58302;SDS011;44109;52.398;7.024;2023-01-29T13:40:00;33.20;;;21.00;;
58302;SDS011;44109;52.398;7.024;2023-01-29T13:42:36;38.38;;;23.20;;
58302;SDS011;44109;52.398;7.024;2023-01-29T13:45:13;40.17;;;25.48;;
58302;SDS011;44109;52.398;7.024;2023-01-29T13:47:49;33.08;;;22.25;;
58302;SDS011;44109;52.398;7.024;2023-01-29T13:50:19;35.83;;;23.88;;
58302;SDS011;44109;52.398;7.024;2023-01-29T13:52:56;43.45;;;27.77;;
58302;SDS011;44109;52.398;7.024;2023-01-29T13:55:28;42.28;;;26.52;;
58302;SDS011;44109;52.398;7.024;2023-01-29T13:58:00;41.05;;;26.90;;
58302;SDS011;44109;52.398;7.024;2023-01-29T14:12:42;41.85;;;26.58;;
58302;SDS011;44109;52.398;7.024;2023-01-29T14:15:27;41.03;;;26.80;;
58302;SDS011;44109;52.398;7.024;2023-01-29T14:20:54;43.85;;;26.88;;
58302;SDS011;44109;52.398;7.024;2023-01-29T14:23:36;42.05;;;28.08;;
58302;SDS011;44109;52.398;7.024;2023-01-29T14:26:21;44.80;;;29.50;;
58302;SDS011;44109;52.398;7.024;2023-01-29T14:28:57;39.10;;;26.13;;
58302;SDS011;44109;52.398;7.024;2023-01-29T14:31:31;34.65;;;22.33;;
58302;SDS011;44109;52.398;7.024;2023-01-29T14:34:12;37.85;;;25.33;;
58302;SDS011;44109;52.398;7.024;2023-01-29T14:36:48;42.97;;;28.45;;
58302;SDS011;44109;52.398;7.024;2023-01-29T14:39:27;37.55;;;23.50;;
58302;SDS011;44109;52.398;7.024;2023-01-29T14:42:02;44.05;;;27.88;;
58302;SDS011;44109;52.398;7.024;2023-01-29T14:51:04;41.15;;;25.05;;
58302;SDS011;44109;52.398;7.024;2023-01-29T14:53:44;50.72;;;31.98;;
58302;SDS011;44109;52.398;7.024;2023-01-29T14:56:23;49.90;;;31.83;;
58302;SDS011;44109;52.398;7.024;2023-01-29T14:59:03;56.08;;;33.55;;
58302;SDS011;44109;52.398;7.024;2023-01-29T15:01:46;46.60;;;28.13;;
58302;SDS011;44109;52.398;7.024;2023-01-29T15:04:21;39.60;;;26.38;;
58302;SDS011;44109;52.398;7.024;2023-01-29T15:06:54;40.53;;;27.83;;
58302;SDS011;44109;52.398;7.024;2023-01-29T15:09:33;38.90;;;26.20;;
58302;SDS011;44109;52.398;7.024;2023-01-29T15:12:14;43.90;;;28.95;;
58302;SDS011;44109;52.398;7.024;2023-01-29T15:14:55;44.38;;;28.60;;
58302;SDS011;44109;52.398;7.024;2023-01-29T15:17:35;52.20;;;32.47;;
58302;SDS011;44109;52.398;7.024;2023-01-29T15:20:28;53.83;;;33.75;;
58302;SDS011;44109;52.398;7.024;2023-01-29T15:22:58;51.70;;;32.70;;
58302;SDS011;44109;52.398;7.024;2023-01-29T15:25:32;38.17;;;23.77;;
58302;SDS011;44109;52.398;7.024;2023-01-29T15:28:03;38.88;;;25.05;;
58302;SDS011;44109;52.398;7.024;2023-01-29T15:30:35;48.40;;;28.80;;